Terminal Aerodrome Forecast
Issued by NWS Omaha/Valley, NE

Home | Current Version | Previous Version | Text Only | Print | Product List | Glossary Off
Versions: 1 2 3 4 5 6 7 8 9 10 11 12 13 14 15

000
FTUS43 KOAX 041120
TAFOFK
TAF
KOFK 041120Z 0412/0512 34009KT P6SM SKC
     FM041700 35017KT P6SM SCT050
     FM050100 33006KT P6SM SKC
     FM050700 VRB03KT P6SM SKC=

USA.gov is the U.S. government's official web portal to all federal, state and local government web resources and services.